Bemidji Regional Airport
KBJI : now visible

Airfield :











YOU CAN JOIN US ON...

 
LOGIN :

Register | Disclaimer

   EN    FR    IT 

 









Legend :    VFR   Marginal VFR   IFR   Intensive IFR   Very Intensive IFR
Visi :
Ceiling :
>= 8 km
>= 3000ft
5 to 8 km
1000 to 3000 ft
1500m to 5 km
500 to 1000 ft
800 to 1500m
200 to 500 ft
< 800m
< 200 ft
Symbols :   Thunderstorms  Fog  Heavy snow  Heavy precipitations  Wind > 20 kt






- Airport Elevation : 1391 ft


KBJI - Bemidji Regional

CURRENT METAR :
  • 052335Z AUTO 12003KT 10SM CLR M08/M13 A3000 RMK AO2 T10811130

EXPIRED METARs :
  • 052315Z AUTO 00000KT 10SM CLR M07/M13 A3001 RMK AO2 T10711128
  • 052255Z AUTO 22004KT 10SM CLR M07/M13 A3000 RMK AO2 T10751129
  • 052215Z AUTO 00000KT 10SM CLR M07/M13 A3000 RMK AO2 T10701127
  • 052135Z AUTO 14003KT 10SM CLR M07/M13 A2998 RMK AO2 T10711127
  • 052115Z AUTO 16003KT 10SM CLR M07/M13 A2998 RMK AO2 T10751127

TAF KBJI
Valid from the 06 at 00:00 until the 07 at 00:00 UTC


052330Z 0600/0624 00000KT P6SM SCT150
FM060500 17010KT P6SM BKN150
FM061300 16020G31KT P6SM BKN150 WS020/19045KT
FM061800 17019G29KT P6SM OVC025 WS020/19040KT
FM062200 19013KT P6SM OVC008
KZMP FIR / North America



MET'MAP, your aeronautical weather chart ! - Copyright ORBIFLY December 2007 - Disclaimer

ORBIFLY MET'MAP TEAM :

Programming & Development : Alexandra Zaïnal
Original concept : Baudouin d'Aumeries
Technical & hardware support : Manuel Goepfert
Assistance : Marc-Olivier Méhu




SOURCES & CREDITS :

   NOAA       Earth
Advisory